sensor_id;sensor_type;location;lat;lon;timestamp;P1;durP1;ratioP1;P2;durP2;ratioP2
62990;SDS011;49084;48.204;16.202;2022-07-06T00:01:16;10.23;;;9.32;;
62990;SDS011;49084;48.204;16.202;2022-07-06T00:03:42;10.25;;;8.52;;
62990;SDS011;49084;48.204;16.202;2022-07-06T00:06:07;9.75;;;8.73;;
62990;SDS011;49084;48.204;16.202;2022-07-06T00:08:33;15.05;;;8.90;;
62990;SDS011;49084;48.204;16.202;2022-07-06T00:10:59;10.13;;;9.23;;
62990;SDS011;49084;48.204;16.202;2022-07-06T00:13:25;9.82;;;8.93;;
62990;SDS011;49084;48.204;16.202;2022-07-06T00:16:04;9.32;;;8.40;;
62990;SDS011;49084;48.204;16.202;2022-07-06T00:18:29;9.63;;;8.73;;
62990;SDS011;49084;48.204;16.202;2022-07-06T00:20:55;10.77;;;9.35;;
62990;SDS011;49084;48.204;16.202;2022-07-06T00:23:21;12.07;;;9.40;;
62990;SDS011;49084;48.204;16.202;2022-07-06T00:25:47;11.80;;;10.70;;
62990;SDS011;49084;48.204;16.202;2022-07-06T00:28:13;15.40;;;11.68;;
62990;SDS011;49084;48.204;16.202;2022-07-06T00:30:39;14.30;;;10.43;;
62990;SDS011;49084;48.204;16.202;2022-07-06T00:33:04;11.80;;;10.70;;
62990;SDS011;49084;48.204;16.202;2022-07-06T00:35:31;11.35;;;10.05;;
62990;SDS011;49084;48.204;16.202;2022-07-06T00:37:56;13.20;;;10.52;;
62990;SDS011;49084;48.204;16.202;2022-07-06T00:40:22;10.50;;;9.50;;
62990;SDS011;49084;48.204;16.202;2022-07-06T00:42:48;14.35;;;9.70;;
62990;SDS011;49084;48.204;16.202;2022-07-06T00:45:14;10.27;;;9.32;;
62990;SDS011;49084;48.204;16.202;2022-07-06T00:47:41;11.85;;;9.10;;
62990;SDS011;49084;48.204;16.202;2022-07-06T00:50:08;9.77;;;8.20;;
62990;SDS011;49084;48.204;16.202;2022-07-06T00:55:19;10.00;;;9.10;;
62990;SDS011;49084;48.204;16.202;2022-07-06T01:00:13;11.18;;;9.93;;
62990;SDS011;49084;48.204;16.202;2022-07-06T01:02:41;11.27;;;10.20;;
62990;SDS011;49084;48.204;16.202;2022-07-06T01:05:08;11.88;;;10.45;;
62990;SDS011;49084;48.204;16.202;2022-07-06T01:07:35;9.45;;;8.63;;
62990;SDS011;49084;48.204;16.202;2022-07-06T01:10:02;12.38;;;11.07;;
62990;SDS011;49084;48.204;16.202;2022-07-06T01:12:29;12.60;;;11.20;;
62990;SDS011;49084;48.204;16.202;2022-07-06T01:14:55;15.60;;;11.02;;
62990;SDS011;49084;48.204;16.202;2022-07-06T01:17:22;12.90;;;11.73;;
62990;SDS011;49084;48.204;16.202;2022-07-06T01:19:48;12.50;;;11.20;;
62990;SDS011;49084;48.204;16.202;2022-07-06T01:22:14;13.20;;;11.10;;
62990;SDS011;49084;48.204;16.202;2022-07-06T01:24:40;12.35;;;11.18;;
62990;SDS011;49084;48.204;16.202;2022-07-06T01:27:06;11.70;;;10.60;;
62990;SDS011;49084;48.204;16.202;2022-07-06T01:29:32;11.00;;;9.77;;
62990;SDS011;49084;48.204;16.202;2022-07-06T01:31:59;11.23;;;10.18;;
62990;SDS011;49084;48.204;16.202;2022-07-06T01:34:25;11.50;;;10.32;;
62990;SDS011;49084;48.204;16.202;2022-07-06T01:36:50;11.10;;;9.68;;
62990;SDS011;49084;48.204;16.202;2022-07-06T01:39:16;10.70;;;9.70;;
62990;SDS011;49084;48.204;16.202;2022-07-06T01:41:42;10.23;;;9.10;;
62990;SDS011;49084;48.204;16.202;2022-07-06T01:44:08;10.15;;;9.27;;
62990;SDS011;49084;48.204;16.202;2022-07-06T01:46:34;10.20;;;9.30;;
62990;SDS011;49084;48.204;16.202;2022-07-06T01:49:00;10.27;;;9.38;;
62990;SDS011;49084;48.204;16.202;2022-07-06T01:51:25;10.32;;;9.30;;
62990;SDS011;49084;48.204;16.202;2022-07-06T01:53:51;11.15;;;10.15;;
62990;SDS011;49084;48.204;16.202;2022-07-06T01:56:17;12.05;;;9.88;;
62990;SDS011;49084;48.204;16.202;2022-07-06T01:58:46;13.07;;;11.35;;
62990;SDS011;49084;48.204;16.202;2022-07-06T02:01:13;12.30;;;11.10;;
62990;SDS011;49084;48.204;16.202;2022-07-06T02:03:41;14.13;;;12.55;;
62990;SDS011;49084;48.204;16.202;2022-07-06T02:06:08;14.50;;;12.98;;
62990;SDS011;49084;48.204;16.202;2022-07-06T02:08:35;13.18;;;12.00;;
62990;SDS011;49084;48.204;16.202;2022-07-06T02:11:07;15.15;;;12.88;;
62990;SDS011;49084;48.204;16.202;2022-07-06T02:13:35;14.10;;;12.73;;
62990;SDS011;49084;48.204;16.202;2022-07-06T02:16:01;15.18;;;13.50;;
62990;SDS011;49084;48.204;16.202;2022-07-06T02:18:27;14.57;;;12.95;;
62990;SDS011;49084;48.204;16.202;2022-07-06T02:20:53;16.00;;;14.15;;
62990;SDS011;49084;48.204;16.202;2022-07-06T02:23:18;14.60;;;13.20;;
62990;SDS011;49084;48.204;16.202;2022-07-06T02:25:44;15.52;;;13.85;;
62990;SDS011;49084;48.204;16.202;2022-07-06T02:28:10;15.35;;;13.77;;
62990;SDS011;49084;48.204;16.202;2022-07-06T02:30:35;16.83;;;14.57;;
62990;SDS011;49084;48.204;16.202;2022-07-06T02:33:01;15.95;;;14.50;;
62990;SDS011;49084;48.204;16.202;2022-07-06T02:35:27;16.70;;;14.63;;
62990;SDS011;49084;48.204;16.202;2022-07-06T02:37:52;16.88;;;14.77;;
62990;SDS011;49084;48.204;16.202;2022-07-06T02:40:18;15.30;;;13.85;;
62990;SDS011;49084;48.204;16.202;2022-07-06T02:42:43;16.52;;;14.50;;
62990;SDS011;49084;48.204;16.202;2022-07-06T02:45:09;16.42;;;14.52;;
62990;SDS011;49084;48.204;16.202;2022-07-06T02:47:35;15.85;;;14.18;;
62990;SDS011;49084;48.204;16.202;2022-07-06T02:50:02;15.48;;;14.07;;
62990;SDS011;49084;48.204;16.202;2022-07-06T02:52:29;16.50;;;14.52;;
62990;SDS011;49084;48.204;16.202;2022-07-06T02:54:54;16.45;;;14.85;;
62990;SDS011;49084;48.204;16.202;2022-07-06T02:57:20;16.40;;;14.68;;
62990;SDS011;49084;48.204;16.202;2022-07-06T02:59:46;18.33;;;14.30;;
62990;SDS011;49084;48.204;16.202;2022-07-06T03:02:14;15.00;;;13.60;;
62990;SDS011;49084;48.204;16.202;2022-07-06T03:04:41;16.08;;;13.30;;
62990;SDS011;49084;48.204;16.202;2022-07-06T03:07:06;15.82;;;14.35;;
62990;SDS011;49084;48.204;16.202;2022-07-06T03:09:32;14.95;;;13.45;;
62990;SDS011;49084;48.204;16.202;2022-07-06T03:11:58;16.98;;;14.57;;
62990;SDS011;49084;48.204;16.202;2022-07-06T03:14:24;16.20;;;14.50;;
62990;SDS011;49084;48.204;16.202;2022-07-06T03:16:50;16.65;;;14.57;;
62990;SDS011;49084;48.204;16.202;2022-07-06T03:19:16;19.00;;;14.55;;
62990;SDS011;49084;48.204;16.202;2022-07-06T03:21:42;16.55;;;14.80;;
62990;SDS011;49084;48.204;16.202;2022-07-06T03:24:07;15.80;;;14.05;;
62990;SDS011;49084;48.204;16.202;2022-07-06T03:26:33;15.50;;;13.77;;
62990;SDS011;49084;48.204;16.202;2022-07-06T03:28:58;15.13;;;13.75;;
62990;SDS011;49084;48.204;16.202;2022-07-06T03:31:24;17.83;;;14.35;;
62990;SDS011;49084;48.204;16.202;2022-07-06T03:33:50;17.35;;;13.95;;
62990;SDS011;49084;48.204;16.202;2022-07-06T03:36:17;16.08;;;14.40;;
62990;SDS011;49084;48.204;16.202;2022-07-06T03:38:42;18.85;;;15.45;;
62990;SDS011;49084;48.204;16.202;2022-07-06T03:41:08;16.48;;;14.88;;
62990;SDS011;49084;48.204;16.202;2022-07-06T03:43:34;16.27;;;14.77;;
62990;SDS011;49084;48.204;16.202;2022-07-06T03:45:59;16.73;;;15.02;;
62990;SDS011;49084;48.204;16.202;2022-07-06T03:48:25;17.75;;;15.77;;
62990;SDS011;49084;48.204;16.202;2022-07-06T03:50:51;19.33;;;15.55;;
62990;SDS011;49084;48.204;16.202;2022-07-06T03:53:16;16.25;;;14.75;;
62990;SDS011;49084;48.204;16.202;2022-07-06T03:55:42;16.55;;;14.88;;
62990;SDS011;49084;48.204;16.202;2022-07-06T03:58:08;16.95;;;15.15;;
62990;SDS011;49084;48.204;16.202;2022-07-06T04:00:33;16.55;;;14.73;;
62990;SDS011;49084;48.204;16.202;2022-07-06T04:02:59;17.85;;;16.00;;
62990;SDS011;49084;48.204;16.202;2022-07-06T04:05:25;16.13;;;14.13;;
62990;SDS011;49084;48.204;16.202;2022-07-06T04:07:51;16.92;;;14.45;;
62990;SDS011;49084;48.204;16.202;2022-07-06T04:10:17;14.68;;;13.32;;
62990;SDS011;49084;48.204;16.202;2022-07-06T04:12:43;14.88;;;13.32;;
62990;SDS011;49084;48.204;16.202;2022-07-06T04:15:09;14.27;;;12.93;;
62990;SDS011;49084;48.204;16.202;2022-07-06T04:17:36;13.73;;;12.43;;
62990;SDS011;49084;48.204;16.202;2022-07-06T04:20:17;13.93;;;12.52;;
62990;SDS011;49084;48.204;16.202;2022-07-06T04:22:43;13.50;;;12.13;;
62990;SDS011;49084;48.204;16.202;2022-07-06T04:25:08;12.18;;;11.15;;
62990;SDS011;49084;48.204;16.202;2022-07-06T04:27:34;14.35;;;11.25;;
62990;SDS011;49084;48.204;16.202;2022-07-06T04:30:00;12.73;;;11.18;;
62990;SDS011;49084;48.204;16.202;2022-07-06T04:32:26;12.43;;;11.32;;
62990;SDS011;49084;48.204;16.202;2022-07-06T04:34:52;12.93;;;10.93;;
62990;SDS011;49084;48.204;16.202;2022-07-06T04:37:17;11.77;;;10.57;;
62990;SDS011;49084;48.204;16.202;2022-07-06T04:39:43;10.20;;;9.20;;
62990;SDS011;49084;48.204;16.202;2022-07-06T04:42:08;12.57;;;10.60;;
62990;SDS011;49084;48.204;16.202;2022-07-06T04:44:34;11.52;;;10.15;;
62990;SDS011;49084;48.204;16.202;2022-07-06T04:47:00;9.68;;;8.77;;
62990;SDS011;49084;48.204;16.202;2022-07-06T04:49:25;9.70;;;8.77;;
62990;SDS011;49084;48.204;16.202;2022-07-06T04:51:51;9.23;;;8.30;;
62990;SDS011;49084;48.204;16.202;2022-07-06T04:54:16;9.95;;;8.52;;
62990;SDS011;49084;48.204;16.202;2022-07-06T04:56:42;8.98;;;8.02;;
62990;SDS011;49084;48.204;16.202;2022-07-06T04:59:08;8.80;;;8.10;;
62990;SDS011;49084;48.204;16.202;2022-07-06T05:01:33;8.60;;;7.90;;
62990;SDS011;49084;48.204;16.202;2022-07-06T05:03:59;9.48;;;7.82;;
62990;SDS011;49084;48.204;16.202;2022-07-06T05:06:25;8.43;;;7.60;;
62990;SDS011;49084;48.204;16.202;2022-07-06T05:08:50;12.32;;;8.13;;
62990;SDS011;49084;48.204;16.202;2022-07-06T05:11:16;8.10;;;6.90;;
62990;SDS011;49084;48.204;16.202;2022-07-06T05:13:42;7.35;;;6.75;;
62990;SDS011;49084;48.204;16.202;2022-07-06T05:16:07;8.43;;;6.72;;
62990;SDS011;49084;48.204;16.202;2022-07-06T05:18:33;6.45;;;6.03;;
62990;SDS011;49084;48.204;16.202;2022-07-06T05:20:59;10.90;;;6.30;;
62990;SDS011;49084;48.204;16.202;2022-07-06T05:23:25;7.20;;;6.50;;
62990;SDS011;49084;48.204;16.202;2022-07-06T05:25:50;6.88;;;6.38;;
62990;SDS011;49084;48.204;16.202;2022-07-06T05:28:16;7.53;;;6.80;;
62990;SDS011;49084;48.204;16.202;2022-07-06T05:30:42;6.03;;;5.32;;
62990;SDS011;49084;48.204;16.202;2022-07-06T05:33:07;7.25;;;6.03;;
62990;SDS011;49084;48.204;16.202;2022-07-06T05:35:33;5.68;;;5.10;;
62990;SDS011;49084;48.204;16.202;2022-07-06T05:37:58;5.50;;;4.90;;
62990;SDS011;49084;48.204;16.202;2022-07-06T05:40:24;5.13;;;4.72;;
62990;SDS011;49084;48.204;16.202;2022-07-06T05:42:50;4.53;;;4.22;;
62990;SDS011;49084;48.204;16.202;2022-07-06T05:45:15;4.65;;;3.70;;
62990;SDS011;49084;48.204;16.202;2022-07-06T05:47:41;4.30;;;3.90;;
62990;SDS011;49084;48.204;16.202;2022-07-06T05:50:25;4.20;;;3.88;;
62990;SDS011;49084;48.204;16.202;2022-07-06T05:52:58;6.28;;;3.72;;
62990;SDS011;49084;48.204;16.202;2022-07-06T05:55:29;3.58;;;3.20;;
62990;SDS011;49084;48.204;16.202;2022-07-06T05:57:55;3.20;;;3.00;;
62990;SDS011;49084;48.204;16.202;2022-07-06T06:00:24;4.07;;;3.13;;
62990;SDS011;49084;48.204;16.202;2022-07-06T06:02:51;3.80;;;3.10;;
62990;SDS011;49084;48.204;16.202;2022-07-06T06:05:17;3.65;;;3.38;;
62990;SDS011;49084;48.204;16.202;2022-07-06T06:07:43;5.20;;;2.92;;
62990;SDS011;49084;48.204;16.202;2022-07-06T06:10:12;4.03;;;2.75;;
62990;SDS011;49084;48.204;16.202;2022-07-06T06:12:38;5.25;;;3.13;;
62990;SDS011;49084;48.204;16.202;2022-07-06T06:15:05;5.57;;;2.60;;
62990;SDS011;49084;48.204;16.202;2022-07-06T06:17:31;4.50;;;2.97;;
62990;SDS011;49084;48.204;16.202;2022-07-06T06:19:58;2.70;;;2.50;;
62990;SDS011;49084;48.204;16.202;2022-07-06T06:22:24;2.60;;;2.30;;
62990;SDS011;49084;48.204;16.202;2022-07-06T06:24:50;5.35;;;2.20;;
62990;SDS011;49084;48.204;16.202;2022-07-06T06:27:15;4.05;;;2.40;;
62990;SDS011;49084;48.204;16.202;2022-07-06T06:29:41;3.45;;;2.22;;
62990;SDS011;49084;48.204;16.202;2022-07-06T06:32:09;2.40;;;1.90;;
62990;SDS011;49084;48.204;16.202;2022-07-06T06:34:36;2.33;;;2.13;;
62990;SDS011;49084;48.204;16.202;2022-07-06T06:37:02;3.78;;;2.15;;
62990;SDS011;49084;48.204;16.202;2022-07-06T06:39:28;2.90;;;1.95;;
62990;SDS011;49084;48.204;16.202;2022-07-06T06:41:54;3.65;;;2.10;;
62990;SDS011;49084;48.204;16.202;2022-07-06T06:44:19;3.10;;;2.60;;
62990;SDS011;49084;48.204;16.202;2022-07-06T06:46:48;5.82;;;1.90;;
62990;SDS011;49084;48.204;16.202;2022-07-06T06:49:14;2.47;;;2.20;;
62990;SDS011;49084;48.204;16.202;2022-07-06T06:51:40;6.13;;;2.30;;
62990;SDS011;49084;48.204;16.202;2022-07-06T06:54:05;2.40;;;2.30;;
62990;SDS011;49084;48.204;16.202;2022-07-06T06:56:31;3.58;;;2.15;;
62990;SDS011;49084;48.204;16.202;2022-07-06T06:58:57;2.67;;;2.47;;
62990;SDS011;49084;48.204;16.202;2022-07-06T07:01:22;3.30;;;2.13;;
62990;SDS011;49084;48.204;16.202;2022-07-06T07:03:49;2.80;;;2.50;;
62990;SDS011;49084;48.204;16.202;2022-07-06T07:06:19;4.03;;;2.80;;
62990;SDS011;49084;48.204;16.202;2022-07-06T07:08:44;3.10;;;2.35;;
62990;SDS011;49084;48.204;16.202;2022-07-06T07:11:10;2.85;;;2.60;;
62990;SDS011;49084;48.204;16.202;2022-07-06T07:13:35;7.07;;;2.30;;
62990;SDS011;49084;48.204;16.202;2022-07-06T07:16:01;4.75;;;2.17;;
62990;SDS011;49084;48.204;16.202;2022-07-06T07:18:26;4.20;;;2.05;;
62990;SDS011;49084;48.204;16.202;2022-07-06T07:20:52;3.00;;;2.35;;
62990;SDS011;49084;48.204;16.202;2022-07-06T07:23:18;3.85;;;2.53;;
62990;SDS011;49084;48.204;16.202;2022-07-06T07:25:43;3.30;;;2.35;;
62990;SDS011;49084;48.204;16.202;2022-07-06T07:28:09;2.20;;;2.08;;
62990;SDS011;49084;48.204;16.202;2022-07-06T07:30:35;1.80;;;1.70;;
62990;SDS011;49084;48.204;16.202;2022-07-06T07:33:00;2.13;;;2.03;;
62990;SDS011;49084;48.204;16.202;2022-07-06T07:35:26;3.05;;;2.08;;
62990;SDS011;49084;48.204;16.202;2022-07-06T07:37:52;2.05;;;1.90;;
62990;SDS011;49084;48.204;16.202;2022-07-06T07:40:18;10.27;;;1.77;;
62990;SDS011;49084;48.204;16.202;2022-07-06T07:42:44;3.35;;;1.90;;
62990;SDS011;49084;48.204;16.202;2022-07-06T07:45:10;2.65;;;1.75;;
62990;SDS011;49084;48.204;16.202;2022-07-06T07:47:37;1.40;;;1.40;;
62990;SDS011;49084;48.204;16.202;2022-07-06T07:50:04;2.33;;;2.10;;
62990;SDS011;49084;48.204;16.202;2022-07-06T07:52:31;1.75;;;1.50;;
62990;SDS011;49084;48.204;16.202;2022-07-06T07:54:57;1.90;;;1.70;;
62990;SDS011;49084;48.204;16.202;2022-07-06T07:57:22;2.00;;;1.90;;
62990;SDS011;49084;48.204;16.202;2022-07-06T07:59:48;3.85;;;1.83;;
62990;SDS011;49084;48.204;16.202;2022-07-06T08:02:14;2.13;;;1.80;;
62990;SDS011;49084;48.204;16.202;2022-07-06T08:04:39;3.00;;;1.40;;
62990;SDS011;49084;48.204;16.202;2022-07-06T08:07:05;6.03;;;1.80;;
62990;SDS011;49084;48.204;16.202;2022-07-06T08:09:31;1.83;;;1.70;;
62990;SDS011;49084;48.204;16.202;2022-07-06T08:11:58;2.97;;;1.60;;
62990;SDS011;49084;48.204;16.202;2022-07-06T08:14:24;1.42;;;1.30;;
62990;SDS011;49084;48.204;16.202;2022-07-06T08:16:50;3.63;;;1.80;;
62990;SDS011;49084;48.204;16.202;2022-07-06T08:19:16;1.50;;;1.20;;
62990;SDS011;49084;48.204;16.202;2022-07-06T08:21:41;2.15;;;1.50;;
62990;SDS011;49084;48.204;16.202;2022-07-06T08:24:08;1.52;;;1.42;;
62990;SDS011;49084;48.204;16.202;2022-07-06T08:26:34;2.78;;;1.27;;
62990;SDS011;49084;48.204;16.202;2022-07-06T08:29:00;2.70;;;1.05;;
62990;SDS011;49084;48.204;16.202;2022-07-06T08:31:26;3.30;;;1.15;;
62990;SDS011;49084;48.204;16.202;2022-07-06T08:33:55;2.15;;;1.13;;
62990;SDS011;49084;48.204;16.202;2022-07-06T08:36:21;1.60;;;1.42;;
62990;SDS011;49084;48.204;16.202;2022-07-06T08:38:47;1.38;;;1.08;;
62990;SDS011;49084;48.204;16.202;2022-07-06T08:41:16;2.15;;;1.10;;
62990;SDS011;49084;48.204;16.202;2022-07-06T08:43:43;1.70;;;1.10;;
62990;SDS011;49084;48.204;16.202;2022-07-06T08:46:08;4.93;;;1.20;;
62990;SDS011;49084;48.204;16.202;2022-07-06T08:48:37;2.28;;;1.48;;
62990;SDS011;49084;48.204;16.202;2022-07-06T08:51:12;3.20;;;1.20;;
62990;SDS011;49084;48.204;16.202;2022-07-06T08:53:40;1.48;;;1.25;;
62990;SDS011;49084;48.204;16.202;2022-07-06T08:56:07;1.83;;;1.27;;
62990;SDS011;49084;48.204;16.202;2022-07-06T08:58:33;3.35;;;1.20;;
62990;SDS011;49084;48.204;16.202;2022-07-06T09:00:59;1.20;;;1.10;;
62990;SDS011;49084;48.204;16.202;2022-07-06T09:03:26;2.55;;;1.42;;
62990;SDS011;49084;48.204;16.202;2022-07-06T09:05:52;2.47;;;1.70;;
62990;SDS011;49084;48.204;16.202;2022-07-06T09:08:23;1.38;;;1.25;;
62990;SDS011;49084;48.204;16.202;2022-07-06T09:10:51;4.22;;;1.33;;
62990;SDS011;49084;48.204;16.202;2022-07-06T09:13:17;1.65;;;1.55;;
62990;SDS011;49084;48.204;16.202;2022-07-06T09:15:43;3.35;;;1.60;;
62990;SDS011;49084;48.204;16.202;2022-07-06T09:18:08;1.83;;;1.58;;
62990;SDS011;49084;48.204;16.202;2022-07-06T09:20:34;4.35;;;1.58;;
62990;SDS011;49084;48.204;16.202;2022-07-06T09:23:00;3.80;;;1.70;;
62990;SDS011;49084;48.204;16.202;2022-07-06T09:25:28;1.60;;;1.50;;
62990;SDS011;49084;48.204;16.202;2022-07-06T09:27:55;2.95;;;1.63;;
62990;SDS011;49084;48.204;16.202;2022-07-06T09:30:23;3.35;;;1.30;;
62990;SDS011;49084;48.204;16.202;2022-07-06T09:32:51;1.63;;;1.33;;
62990;SDS011;49084;48.204;16.202;2022-07-06T09:35:30;3.03;;;1.58;;
62990;SDS011;49084;48.204;16.202;2022-07-06T09:40:40;1.27;;;1.20;;
62990;SDS011;49084;48.204;16.202;2022-07-06T09:45:37;2.03;;;1.58;;
62990;SDS011;49084;48.204;16.202;2022-07-06T09:48:09;3.63;;;1.55;;
62990;SDS011;49084;48.204;16.202;2022-07-06T09:50:41;2.47;;;1.17;;
62990;SDS011;49084;48.204;16.202;2022-07-06T09:53:08;3.38;;;1.30;;
62990;SDS011;49084;48.204;16.202;2022-07-06T09:55:35;2.35;;;1.60;;
62990;SDS011;49084;48.204;16.202;2022-07-06T09:58:01;1.50;;;1.30;;
62990;SDS011;49084;48.204;16.202;2022-07-06T10:00:27;3.03;;;1.35;;
62990;SDS011;49084;48.204;16.202;2022-07-06T10:02:53;2.35;;;1.33;;
62990;SDS011;49084;48.204;16.202;2022-07-06T10:05:19;1.50;;;1.40;;
62990;SDS011;49084;48.204;16.202;2022-07-06T10:07:52;1.40;;;1.30;;
62990;SDS011;49084;48.204;16.202;2022-07-06T10:10:21;2.15;;;1.33;;
62990;SDS011;49084;48.204;16.202;2022-07-06T10:12:54;1.85;;;1.33;;
62990;SDS011;49084;48.204;16.202;2022-07-06T10:17:51;1.85;;;1.65;;
62990;SDS011;49084;48.204;16.202;2022-07-06T10:20:17;2.38;;;1.70;;
62990;SDS011;49084;48.204;16.202;2022-07-06T10:22:45;3.90;;;2.00;;
62990;SDS011;49084;48.204;16.202;2022-07-06T10:25:17;2.05;;;1.60;;
62990;SDS011;49084;48.204;16.202;2022-07-06T10:27:45;2.45;;;1.80;;
62990;SDS011;49084;48.204;16.202;2022-07-06T10:30:12;2.63;;;1.90;;
62990;SDS011;49084;48.204;16.202;2022-07-06T10:32:38;4.10;;;1.80;;
62990;SDS011;49084;48.204;16.202;2022-07-06T10:35:06;2.20;;;1.50;;
62990;SDS011;49084;48.204;16.202;2022-07-06T10:37:32;6.38;;;1.73;;
62990;SDS011;49084;48.204;16.202;2022-07-06T10:39:58;2.45;;;1.63;;
62990;SDS011;49084;48.204;16.202;2022-07-06T10:45:09;1.23;;;1.13;;
62990;SDS011;49084;48.204;16.202;2022-07-06T10:47:36;0.85;;;0.65;;
62990;SDS011;49084;48.204;16.202;2022-07-06T10:50:02;2.35;;;0.80;;
62990;SDS011;49084;48.204;16.202;2022-07-06T10:52:47;2.53;;;1.00;;
62990;SDS011;49084;48.204;16.202;2022-07-06T10:58:01;1.52;;;1.10;;
62990;SDS011;49084;48.204;16.202;2022-07-06T11:03:29;2.45;;;1.23;;
62990;SDS011;49084;48.204;16.202;2022-07-06T11:06:08;4.13;;;1.95;;
62990;SDS011;49084;48.204;16.202;2022-07-06T11:08:49;5.03;;;1.38;;
62990;SDS011;49084;48.204;16.202;2022-07-06T11:11:26;2.03;;;1.23;;
62990;SDS011;49084;48.204;16.202;2022-07-06T11:14:11;1.95;;;0.95;;
62990;SDS011;49084;48.204;16.202;2022-07-06T11:16:40;4.38;;;1.25;;
62990;SDS011;49084;48.204;16.202;2022-07-06T11:19:26;1.15;;;0.95;;
62990;SDS011;49084;48.204;16.202;2022-07-06T11:22:05;1.52;;;0.80;;
62990;SDS011;49084;48.204;16.202;2022-07-06T11:24:33;1.65;;;0.80;;
62990;SDS011;49084;48.204;16.202;2022-07-06T11:27:01;3.15;;;0.80;;
62990;SDS011;49084;48.204;16.202;2022-07-06T11:29:27;2.38;;;1.10;;
62990;SDS011;49084;48.204;16.202;2022-07-06T11:31:57;1.58;;;1.17;;
62990;SDS011;49084;48.204;16.202;2022-07-06T11:34:28;7.25;;;1.10;;
62990;SDS011;49084;48.204;16.202;2022-07-06T11:37:05;3.05;;;0.85;;
62990;SDS011;49084;48.204;16.202;2022-07-06T11:39:33;2.78;;;0.90;;
62990;SDS011;49084;48.204;16.202;2022-07-06T11:42:00;3.05;;;1.10;;
62990;SDS011;49084;48.204;16.202;2022-07-06T11:44:29;1.42;;;0.88;;
62990;SDS011;49084;48.204;16.202;2022-07-06T11:46:55;1.10;;;0.85;;
62990;SDS011;49084;48.204;16.202;2022-07-06T11:49:26;4.63;;;1.50;;
62990;SDS011;49084;48.204;16.202;2022-07-06T11:51:51;1.48;;;1.02;;
62990;SDS011;49084;48.204;16.202;2022-07-06T11:54:18;1.17;;;1.00;;
62990;SDS011;49084;48.204;16.202;2022-07-06T11:56:49;1.50;;;1.40;;
62990;SDS011;49084;48.204;16.202;2022-07-06T11:59:26;4.85;;;1.40;;
62990;SDS011;49084;48.204;16.202;2022-07-06T12:01:58;1.52;;;1.42;;
62990;SDS011;49084;48.204;16.202;2022-07-06T12:04:29;3.75;;;1.30;;
62990;SDS011;49084;48.204;16.202;2022-07-06T12:06:57;1.50;;;1.38;;
62990;SDS011;49084;48.204;16.202;2022-07-06T12:09:28;1.52;;;1.42;;
62990;SDS011;49084;48.204;16.202;2022-07-06T12:11:55;4.47;;;1.55;;
62990;SDS011;49084;48.204;16.202;2022-07-06T12:14:21;1.20;;;1.20;;
62990;SDS011;49084;48.204;16.202;2022-07-06T12:16:50;2.83;;;1.50;;
62990;SDS011;49084;48.204;16.202;2022-07-06T12:19:16;3.85;;;1.30;;
62990;SDS011;49084;48.204;16.202;2022-07-06T12:21:47;3.08;;;1.55;;
62990;SDS011;49084;48.204;16.202;2022-07-06T12:24:17;4.40;;;1.50;;
62990;SDS011;49084;48.204;16.202;2022-07-06T12:26:44;1.85;;;1.30;;
62990;SDS011;49084;48.204;16.202;2022-07-06T12:29:11;6.72;;;1.73;;
62990;SDS011;49084;48.204;16.202;2022-07-06T12:31:39;1.88;;;1.75;;
62990;SDS011;49084;48.204;16.202;2022-07-06T12:34:12;2.20;;;2.00;;
62990;SDS011;49084;48.204;16.202;2022-07-06T12:36:50;2.53;;;2.25;;
62990;SDS011;49084;48.204;16.202;2022-07-06T12:39:24;3.38;;;1.90;;
62990;SDS011;49084;48.204;16.202;2022-07-06T12:44:21;1.63;;;1.52;;
62990;SDS011;49084;48.204;16.202;2022-07-06T12:46:49;7.57;;;1.65;;
62990;SDS011;49084;48.204;16.202;2022-07-06T12:51:49;3.83;;;1.77;;
62990;SDS011;49084;48.204;16.202;2022-07-06T12:54:23;1.55;;;1.42;;
62990;SDS011;49084;48.204;16.202;2022-07-06T12:59:28;2.22;;;1.40;;
62990;SDS011;49084;48.204;16.202;2022-07-06T13:01:54;1.23;;;1.13;;
62990;SDS011;49084;48.204;16.202;2022-07-06T13:04:21;1.38;;;1.30;;
62990;SDS011;49084;48.204;16.202;2022-07-06T13:06:51;5.22;;;1.42;;
62990;SDS011;49084;48.204;16.202;2022-07-06T13:09:18;2.78;;;1.58;;
62990;SDS011;49084;48.204;16.202;2022-07-06T13:11:45;2.78;;;1.20;;
62990;SDS011;49084;48.204;16.202;2022-07-06T13:14:12;1.25;;;1.10;;
62990;SDS011;49084;48.204;16.202;2022-07-06T13:16:39;1.70;;;1.45;;
62990;SDS011;49084;48.204;16.202;2022-07-06T13:19:04;1.63;;;1.08;;
62990;SDS011;49084;48.204;16.202;2022-07-06T13:21:30;3.65;;;1.55;;
62990;SDS011;49084;48.204;16.202;2022-07-06T13:23:56;2.17;;;1.17;;
62990;SDS011;49084;48.204;16.202;2022-07-06T13:26:22;1.35;;;1.23;;
62990;SDS011;49084;48.204;16.202;2022-07-06T13:28:47;4.00;;;1.35;;
62990;SDS011;49084;48.204;16.202;2022-07-06T13:31:13;4.07;;;0.88;;
62990;SDS011;49084;48.204;16.202;2022-07-06T13:33:38;2.97;;;0.90;;
62990;SDS011;49084;48.204;16.202;2022-07-06T13:36:04;2.50;;;1.10;;
62990;SDS011;49084;48.204;16.202;2022-07-06T13:38:30;1.23;;;0.93;;
62990;SDS011;49084;48.204;16.202;2022-07-06T13:40:56;0.70;;;0.70;;
62990;SDS011;49084;48.204;16.202;2022-07-06T13:43:22;5.47;;;1.80;;
62990;SDS011;49084;48.204;16.202;2022-07-06T13:45:48;1.27;;;0.77;;
62990;SDS011;49084;48.204;16.202;2022-07-06T13:48:14;0.80;;;0.80;;
62990;SDS011;49084;48.204;16.202;2022-07-06T13:50:39;1.77;;;0.90;;
62990;SDS011;49084;48.204;16.202;2022-07-06T13:53:05;4.60;;;0.80;;
62990;SDS011;49084;48.204;16.202;2022-07-06T13:55:31;0.70;;;0.70;;
62990;SDS011;49084;48.204;16.202;2022-07-06T13:57:58;3.38;;;0.93;;
62990;SDS011;49084;48.204;16.202;2022-07-06T14:00:24;2.45;;;0.82;;
62990;SDS011;49084;48.204;16.202;2022-07-06T14:02:49;0.80;;;0.80;;
62990;SDS011;49084;48.204;16.202;2022-07-06T14:05:15;1.48;;;1.10;;
62990;SDS011;49084;48.204;16.202;2022-07-06T14:07:41;0.82;;;0.82;;
62990;SDS011;49084;48.204;16.202;2022-07-06T14:10:07;0.98;;;0.85;;
62990;SDS011;49084;48.204;16.202;2022-07-06T14:12:33;1.15;;;0.98;;
62990;SDS011;49084;48.204;16.202;2022-07-06T14:14:58;1.13;;;0.98;;
62990;SDS011;49084;48.204;16.202;2022-07-06T14:17:25;1.45;;;0.82;;
62990;SDS011;49084;48.204;16.202;2022-07-06T14:19:50;1.35;;;1.05;;
62990;SDS011;49084;48.204;16.202;2022-07-06T14:22:16;1.42;;;1.10;;
62990;SDS011;49084;48.204;16.202;2022-07-06T14:24:42;5.22;;;1.10;;
62990;SDS011;49084;48.204;16.202;2022-07-06T14:27:07;1.15;;;1.00;;
62990;SDS011;49084;48.204;16.202;2022-07-06T14:29:33;2.38;;;1.20;;
62990;SDS011;49084;48.204;16.202;2022-07-06T14:31:59;4.53;;;1.73;;
62990;SDS011;49084;48.204;16.202;2022-07-06T14:34:24;3.17;;;1.67;;
62990;SDS011;49084;48.204;16.202;2022-07-06T14:36:50;6.43;;;2.35;;
62990;SDS011;49084;48.204;16.202;2022-07-06T14:39:16;3.25;;;1.70;;
62990;SDS011;49084;48.204;16.202;2022-07-06T14:41:42;3.83;;;1.83;;
62990;SDS011;49084;48.204;16.202;2022-07-06T14:44:07;5.20;;;2.67;;
62990;SDS011;49084;48.204;16.202;2022-07-06T14:46:33;2.97;;;2.45;;
62990;SDS011;49084;48.204;16.202;2022-07-06T14:48:59;4.53;;;2.65;;
62990;SDS011;49084;48.204;16.202;2022-07-06T14:51:25;2.10;;;1.90;;
62990;SDS011;49084;48.204;16.202;2022-07-06T14:53:51;4.53;;;2.53;;
62990;SDS011;49084;48.204;16.202;2022-07-06T14:56:17;2.97;;;2.70;;